Terminal Aerodrome Forecast
Issued by NWS

Home | Current Version | Previous Version | Text Only | Print | Product List | Glossary On
Versions: 1 2 3 4 5 6 7 8 9 10 11 12
000
FTUS45 KVEF 052338
TAFHND
TAF
KHND 052338Z 0600/0624 VRB05KT P6SM BKN200
     FM060200 17008KT P6SM BKN200
     FM061200 20006KT P6SM SCT250
     FM061900 01006KT P6SM SCT250=

USA.gov is the U.S. government's official web portal to all federal, state and local government web resources and services.